sensor_id;sensor_type;location;lat;lon;timestamp;temperature;humidity
18083;DHT22;9168;51.194;6.840;2023-03-24T00:00:08;12.30;99.90
18083;DHT22;9168;51.194;6.840;2023-03-24T00:02:37;12.30;99.90
18083;DHT22;9168;51.194;6.840;2023-03-24T00:05:07;12.40;99.90
18083;DHT22;9168;51.194;6.840;2023-03-24T00:07:35;12.30;99.90
18083;DHT22;9168;51.194;6.840;2023-03-24T00:10:05;12.30;99.90
18083;DHT22;9168;51.194;6.840;2023-03-24T00:12:34;12.30;99.90
18083;DHT22;9168;51.194;6.840;2023-03-24T00:15:04;12.30;99.90
18083;DHT22;9168;51.194;6.840;2023-03-24T00:17:31;12.30;99.90
18083;DHT22;9168;51.194;6.840;2023-03-24T00:20:00;12.30;99.90
18083;DHT22;9168;51.194;6.840;2023-03-24T00:22:32;12.30;99.90
18083;DHT22;9168;51.194;6.840;2023-03-24T00:24:58;12.20;99.90
18083;DHT22;9168;51.194;6.840;2023-03-24T00:27:30;12.20;99.90
18083;DHT22;9168;51.194;6.840;2023-03-24T00:30:02;12.20;99.90
18083;DHT22;9168;51.194;6.840;2023-03-24T00:32:29;12.30;99.90
18083;DHT22;9168;51.194;6.840;2023-03-24T00:34:56;12.30;99.90
18083;DHT22;9168;51.194;6.840;2023-03-24T00:37:23;12.30;99.90
18083;DHT22;9168;51.194;6.840;2023-03-24T00:39:50;12.30;99.90
18083;DHT22;9168;51.194;6.840;2023-03-24T00:42:17;12.30;99.90
18083;DHT22;9168;51.194;6.840;2023-03-24T00:44:45;12.30;99.90
18083;DHT22;9168;51.194;6.840;2023-03-24T00:47:12;12.30;99.90
18083;DHT22;9168;51.194;6.840;2023-03-24T00:49:42;12.30;99.90
18083;DHT22;9168;51.194;6.840;2023-03-24T00:52:11;12.30;99.90
18083;DHT22;9168;51.194;6.840;2023-03-24T00:54:39;12.30;99.90
18083;DHT22;9168;51.194;6.840;2023-03-24T00:57:07;12.40;99.90
18083;DHT22;9168;51.194;6.840;2023-03-24T00:59:34;12.40;99.90
18083;DHT22;9168;51.194;6.840;2023-03-24T01:02:08;12.30;99.90
18083;DHT22;9168;51.194;6.840;2023-03-24T01:04:36;12.30;99.90
18083;DHT22;9168;51.194;6.840;2023-03-24T01:07:04;12.30;99.90
18083;DHT22;9168;51.194;6.840;2023-03-24T01:09:32;12.30;99.90
18083;DHT22;9168;51.194;6.840;2023-03-24T01:12:01;12.30;99.90
18083;DHT22;9168;51.194;6.840;2023-03-24T01:14:28;12.30;99.90
18083;DHT22;9168;51.194;6.840;2023-03-24T01:16:55;12.30;99.90
18083;DHT22;9168;51.194;6.840;2023-03-24T01:19:23;12.30;99.90
18083;DHT22;9168;51.194;6.840;2023-03-24T01:21:51;12.20;99.90
18083;DHT22;9168;51.194;6.840;2023-03-24T01:24:19;12.30;99.90
18083;DHT22;9168;51.194;6.840;2023-03-24T01:26:46;12.30;99.90
18083;DHT22;9168;51.194;6.840;2023-03-24T01:29:13;12.30;99.90
18083;DHT22;9168;51.194;6.840;2023-03-24T01:31:40;12.30;99.90
18083;DHT22;9168;51.194;6.840;2023-03-24T01:34:07;12.30;99.90
18083;DHT22;9168;51.194;6.840;2023-03-24T01:36:35;12.20;99.90
18083;DHT22;9168;51.194;6.840;2023-03-24T01:39:02;12.20;99.90
18083;DHT22;9168;51.194;6.840;2023-03-24T01:41:33;12.30;99.90
18083;DHT22;9168;51.194;6.840;2023-03-24T01:44:21;12.30;99.90
18083;DHT22;9168;51.194;6.840;2023-03-24T01:46:48;12.30;99.90
18083;DHT22;9168;51.194;6.840;2023-03-24T01:49:15;12.30;99.90
18083;DHT22;9168;51.194;6.840;2023-03-24T01:51:46;12.30;99.90
18083;DHT22;9168;51.194;6.840;2023-03-24T01:54:17;12.30;99.90
18083;DHT22;9168;51.194;6.840;2023-03-24T01:56:47;12.30;99.90
18083;DHT22;9168;51.194;6.840;2023-03-24T01:59:19;12.30;99.90
18083;DHT22;9168;51.194;6.840;2023-03-24T02:01:46;12.30;99.90
18083;DHT22;9168;51.194;6.840;2023-03-24T02:04:14;12.30;99.90
18083;DHT22;9168;51.194;6.840;2023-03-24T02:06:43;12.30;99.90
18083;DHT22;9168;51.194;6.840;2023-03-24T02:09:12;12.30;99.90
18083;DHT22;9168;51.194;6.840;2023-03-24T02:11:41;12.30;99.90
18083;DHT22;9168;51.194;6.840;2023-03-24T02:14:08;12.30;99.90
18083;DHT22;9168;51.194;6.840;2023-03-24T02:16:52;12.30;99.90
18083;DHT22;9168;51.194;6.840;2023-03-24T02:22:49;12.30;99.90
18083;DHT22;9168;51.194;6.840;2023-03-24T02:25:37;12.30;99.90
18083;DHT22;9168;51.194;6.840;2023-03-24T02:28:22;12.30;99.90
18083;DHT22;9168;51.194;6.840;2023-03-24T02:37:14;12.30;99.90
18083;DHT22;9168;51.194;6.840;2023-03-24T02:40:03;12.30;99.90
18083;DHT22;9168;51.194;6.840;2023-03-24T02:42:42;12.30;99.90
18083;DHT22;9168;51.194;6.840;2023-03-24T02:45:18;12.30;99.90
18083;DHT22;9168;51.194;6.840;2023-03-24T02:47:59;12.40;99.90
18083;DHT22;9168;51.194;6.840;2023-03-24T02:50:37;12.40;99.90
18083;DHT22;9168;51.194;6.840;2023-03-24T02:53:10;12.40;99.90
18083;DHT22;9168;51.194;6.840;2023-03-24T02:55:44;12.40;99.90
18083;DHT22;9168;51.194;6.840;2023-03-24T02:58:15;12.50;99.90
18083;DHT22;9168;51.194;6.840;2023-03-24T03:00:45;12.50;99.90
18083;DHT22;9168;51.194;6.840;2023-03-24T03:03:16;12.60;99.90
18083;DHT22;9168;51.194;6.840;2023-03-24T03:05:48;12.60;99.90
18083;DHT22;9168;51.194;6.840;2023-03-24T03:08:18;12.70;99.90
18083;DHT22;9168;51.194;6.840;2023-03-24T03:10:49;12.80;99.90
18083;DHT22;9168;51.194;6.840;2023-03-24T03:13:20;12.80;99.90
18083;DHT22;9168;51.194;6.840;2023-03-24T03:15:51;12.90;99.90
18083;DHT22;9168;51.194;6.840;2023-03-24T03:18:21;12.90;99.90
18083;DHT22;9168;51.194;6.840;2023-03-24T03:20:54;12.90;99.90
18083;DHT22;9168;51.194;6.840;2023-03-24T03:23:26;13.00;99.90
18083;DHT22;9168;51.194;6.840;2023-03-24T03:25:58;13.00;99.90
18083;DHT22;9168;51.194;6.840;2023-03-24T03:28:32;13.10;99.90
18083;DHT22;9168;51.194;6.840;2023-03-24T03:31:03;13.10;99.90
18083;DHT22;9168;51.194;6.840;2023-03-24T03:33:35;13.20;99.90
18083;DHT22;9168;51.194;6.840;2023-03-24T03:36:08;13.20;99.90
18083;DHT22;9168;51.194;6.840;2023-03-24T03:38:46;13.30;99.90
18083;DHT22;9168;51.194;6.840;2023-03-24T03:41:16;13.30;99.90
18083;DHT22;9168;51.194;6.840;2023-03-24T03:43:45;13.40;99.90
18083;DHT22;9168;51.194;6.840;2023-03-24T03:46:13;13.40;99.90
18083;DHT22;9168;51.194;6.840;2023-03-24T03:48:41;13.50;99.90
18083;DHT22;9168;51.194;6.840;2023-03-24T03:51:09;13.60;99.90
18083;DHT22;9168;51.194;6.840;2023-03-24T03:53:39;13.60;99.90
18083;DHT22;9168;51.194;6.840;2023-03-24T03:56:07;13.60;99.90
18083;DHT22;9168;51.194;6.840;2023-03-24T03:58:36;13.70;99.90
18083;DHT22;9168;51.194;6.840;2023-03-24T04:01:05;13.70;99.90
18083;DHT22;9168;51.194;6.840;2023-03-24T04:06:26;13.70;99.90
18083;DHT22;9168;51.194;6.840;2023-03-24T04:09:04;13.70;99.90
18083;DHT22;9168;51.194;6.840;2023-03-24T04:11:39;13.70;99.90
18083;DHT22;9168;51.194;6.840;2023-03-24T04:14:21;13.70;99.90
18083;DHT22;9168;51.194;6.840;2023-03-24T04:16:59;13.70;99.90
18083;DHT22;9168;51.194;6.840;2023-03-24T04:19:39;13.70;99.90
18083;DHT22;9168;51.194;6.840;2023-03-24T04:22:18;13.70;99.90
18083;DHT22;9168;51.194;6.840;2023-03-24T04:24:53;13.70;99.90
18083;DHT22;9168;51.194;6.840;2023-03-24T04:27:26;13.70;99.90
18083;DHT22;9168;51.194;6.840;2023-03-24T04:30:04;13.60;99.90
18083;DHT22;9168;51.194;6.840;2023-03-24T04:32:39;13.60;99.90
18083;DHT22;9168;51.194;6.840;2023-03-24T04:35:11;13.50;99.90
18083;DHT22;9168;51.194;6.840;2023-03-24T04:37:45;13.30;99.90
18083;DHT22;9168;51.194;6.840;2023-03-24T04:40:13;13.20;99.90
18083;DHT22;9168;51.194;6.840;2023-03-24T04:42:44;13.10;99.90
18083;DHT22;9168;51.194;6.840;2023-03-24T04:45:14;13.00;99.90
18083;DHT22;9168;51.194;6.840;2023-03-24T04:47:46;12.90;99.90
18083;DHT22;9168;51.194;6.840;2023-03-24T04:50:26;12.80;99.90
18083;DHT22;9168;51.194;6.840;2023-03-24T04:52:55;12.70;99.90
18083;DHT22;9168;51.194;6.840;2023-03-24T04:55:49;12.70;99.90
18083;DHT22;9168;51.194;6.840;2023-03-24T04:58:21;12.70;99.90
18083;DHT22;9168;51.194;6.840;2023-03-24T05:00:50;12.60;99.90
18083;DHT22;9168;51.194;6.840;2023-03-24T05:03:17;12.60;99.90
18083;DHT22;9168;51.194;6.840;2023-03-24T05:05:45;12.60;99.90
18083;DHT22;9168;51.194;6.840;2023-03-24T05:08:14;12.60;99.90
18083;DHT22;9168;51.194;6.840;2023-03-24T05:10:42;12.50;99.90
18083;DHT22;9168;51.194;6.840;2023-03-24T05:13:09;12.50;99.90
18083;DHT22;9168;51.194;6.840;2023-03-24T05:15:36;12.50;99.90
18083;DHT22;9168;51.194;6.840;2023-03-24T05:18:05;12.50;99.90
18083;DHT22;9168;51.194;6.840;2023-03-24T05:20:32;12.40;99.90
18083;DHT22;9168;51.194;6.840;2023-03-24T05:22:59;12.40;99.90
18083;DHT22;9168;51.194;6.840;2023-03-24T05:25:26;12.30;99.90
18083;DHT22;9168;51.194;6.840;2023-03-24T05:27:53;12.30;99.90
18083;DHT22;9168;51.194;6.840;2023-03-24T05:30:20;12.30;99.90
18083;DHT22;9168;51.194;6.840;2023-03-24T05:32:47;12.20;99.90
18083;DHT22;9168;51.194;6.840;2023-03-24T05:35:15;12.10;99.90
18083;DHT22;9168;51.194;6.840;2023-03-24T05:37:43;12.10;99.90
18083;DHT22;9168;51.194;6.840;2023-03-24T05:40:10;12.00;99.90
18083;DHT22;9168;51.194;6.840;2023-03-24T05:42:37;11.90;99.90
18083;DHT22;9168;51.194;6.840;2023-03-24T05:45:06;11.90;99.90
18083;DHT22;9168;51.194;6.840;2023-03-24T05:47:33;11.80;99.90
18083;DHT22;9168;51.194;6.840;2023-03-24T05:50:00;11.80;99.90
18083;DHT22;9168;51.194;6.840;2023-03-24T05:52:28;11.70;99.90
18083;DHT22;9168;51.194;6.840;2023-03-24T05:54:56;11.70;99.90
18083;DHT22;9168;51.194;6.840;2023-03-24T05:57:23;11.60;99.90
18083;DHT22;9168;51.194;6.840;2023-03-24T05:59:50;11.50;99.90
18083;DHT22;9168;51.194;6.840;2023-03-24T06:02:17;11.50;99.90
18083;DHT22;9168;51.194;6.840;2023-03-24T06:04:44;11.40;99.90
18083;DHT22;9168;51.194;6.840;2023-03-24T06:07:13;11.30;99.90
18083;DHT22;9168;51.194;6.840;2023-03-24T06:09:42;11.30;99.90
18083;DHT22;9168;51.194;6.840;2023-03-24T06:12:12;11.20;99.90
18083;DHT22;9168;51.194;6.840;2023-03-24T06:14:40;11.20;99.90
18083;DHT22;9168;51.194;6.840;2023-03-24T06:17:08;11.20;99.90
18083;DHT22;9168;51.194;6.840;2023-03-24T06:19:39;11.10;99.90
18083;DHT22;9168;51.194;6.840;2023-03-24T06:22:14;11.10;99.90
18083;DHT22;9168;51.194;6.840;2023-03-24T06:24:43;11.10;99.90
18083;DHT22;9168;51.194;6.840;2023-03-24T06:27:11;11.10;99.90
18083;DHT22;9168;51.194;6.840;2023-03-24T06:29:39;11.10;99.90
18083;DHT22;9168;51.194;6.840;2023-03-24T06:32:08;11.10;99.90
18083;DHT22;9168;51.194;6.840;2023-03-24T06:34:34;11.10;99.90
18083;DHT22;9168;51.194;6.840;2023-03-24T06:37:02;11.10;99.90
18083;DHT22;9168;51.194;6.840;2023-03-24T06:39:29;11.20;99.90
18083;DHT22;9168;51.194;6.840;2023-03-24T06:41:57;11.20;99.90
18083;DHT22;9168;51.194;6.840;2023-03-24T06:44:25;11.20;99.90
18083;DHT22;9168;51.194;6.840;2023-03-24T06:46:51;11.10;99.90
18083;DHT22;9168;51.194;6.840;2023-03-24T06:49:18;11.10;99.90
18083;DHT22;9168;51.194;6.840;2023-03-24T06:51:45;11.10;99.90
18083;DHT22;9168;51.194;6.840;2023-03-24T06:54:12;11.10;99.90
18083;DHT22;9168;51.194;6.840;2023-03-24T06:56:39;11.10;99.90
18083;DHT22;9168;51.194;6.840;2023-03-24T06:59:07;11.10;99.90
18083;DHT22;9168;51.194;6.840;2023-03-24T07:01:35;11.10;99.90
18083;DHT22;9168;51.194;6.840;2023-03-24T07:04:03;11.10;99.90
18083;DHT22;9168;51.194;6.840;2023-03-24T07:06:30;11.10;99.90
18083;DHT22;9168;51.194;6.840;2023-03-24T07:08:58;11.10;99.90
18083;DHT22;9168;51.194;6.840;2023-03-24T07:11:25;11.10;99.90
18083;DHT22;9168;51.194;6.840;2023-03-24T07:13:52;11.10;99.90
18083;DHT22;9168;51.194;6.840;2023-03-24T07:16:20;11.10;99.90
18083;DHT22;9168;51.194;6.840;2023-03-24T07:18:47;11.10;99.90
18083;DHT22;9168;51.194;6.840;2023-03-24T07:21:14;11.10;99.90
18083;DHT22;9168;51.194;6.840;2023-03-24T07:23:41;11.10;99.90
18083;DHT22;9168;51.194;6.840;2023-03-24T07:26:08;11.10;99.90
18083;DHT22;9168;51.194;6.840;2023-03-24T07:28:35;11.10;99.90
18083;DHT22;9168;51.194;6.840;2023-03-24T07:31:02;11.10;99.90
18083;DHT22;9168;51.194;6.840;2023-03-24T07:33:31;11.10;99.90
18083;DHT22;9168;51.194;6.840;2023-03-24T07:35:58;11.10;99.90
18083;DHT22;9168;51.194;6.840;2023-03-24T07:38:25;11.10;99.90
18083;DHT22;9168;51.194;6.840;2023-03-24T07:40:53;11.10;99.90
18083;DHT22;9168;51.194;6.840;2023-03-24T07:43:20;11.10;99.90
18083;DHT22;9168;51.194;6.840;2023-03-24T07:45:47;11.10;99.90
18083;DHT22;9168;51.194;6.840;2023-03-24T07:48:14;11.10;99.90
18083;DHT22;9168;51.194;6.840;2023-03-24T07:50:42;11.10;99.90
18083;DHT22;9168;51.194;6.840;2023-03-24T07:53:09;11.10;99.90
18083;DHT22;9168;51.194;6.840;2023-03-24T07:55:36;11.20;99.90
18083;DHT22;9168;51.194;6.840;2023-03-24T07:58:03;11.20;99.90
18083;DHT22;9168;51.194;6.840;2023-03-24T08:00:30;11.20;99.90
18083;DHT22;9168;51.194;6.840;2023-03-24T08:02:58;11.30;99.90
18083;DHT22;9168;51.194;6.840;2023-03-24T08:05:28;11.30;99.90
18083;DHT22;9168;51.194;6.840;2023-03-24T08:07:56;11.20;99.90
18083;DHT22;9168;51.194;6.840;2023-03-24T08:10:29;11.10;99.90
18083;DHT22;9168;51.194;6.840;2023-03-24T08:12:57;11.10;99.90
18083;DHT22;9168;51.194;6.840;2023-03-24T08:15:25;11.10;99.90
18083;DHT22;9168;51.194;6.840;2023-03-24T08:17:53;11.10;99.90
18083;DHT22;9168;51.194;6.840;2023-03-24T08:20:21;11.20;99.90
18083;DHT22;9168;51.194;6.840;2023-03-24T08:22:49;11.30;99.90
18083;DHT22;9168;51.194;6.840;2023-03-24T08:25:21;11.40;99.90
18083;DHT22;9168;51.194;6.840;2023-03-24T08:27:49;11.60;99.90
18083;DHT22;9168;51.194;6.840;2023-03-24T08:30:18;11.70;99.90
18083;DHT22;9168;51.194;6.840;2023-03-24T08:32:46;11.80;99.90
18083;DHT22;9168;51.194;6.840;2023-03-24T08:35:15;12.00;99.90
18083;DHT22;9168;51.194;6.840;2023-03-24T08:37:43;12.00;99.90
18083;DHT22;9168;51.194;6.840;2023-03-24T08:40:12;12.00;99.90
18083;DHT22;9168;51.194;6.840;2023-03-24T08:42:46;12.00;99.90
18083;DHT22;9168;51.194;6.840;2023-03-24T08:45:13;12.10;99.90
18083;DHT22;9168;51.194;6.840;2023-03-24T08:47:40;12.00;99.90
18083;DHT22;9168;51.194;6.840;2023-03-24T08:50:08;12.10;99.90
18083;DHT22;9168;51.194;6.840;2023-03-24T08:52:35;12.20;99.90
18083;DHT22;9168;51.194;6.840;2023-03-24T08:55:03;12.20;99.90
18083;DHT22;9168;51.194;6.840;2023-03-24T08:57:30;12.20;99.90
18083;DHT22;9168;51.194;6.840;2023-03-24T08:59:58;12.20;99.90
18083;DHT22;9168;51.194;6.840;2023-03-24T09:02:25;12.30;99.90
18083;DHT22;9168;51.194;6.840;2023-03-24T09:04:52;12.40;99.90
18083;DHT22;9168;51.194;6.840;2023-03-24T09:07:20;12.50;99.90
18083;DHT22;9168;51.194;6.840;2023-03-24T09:09:48;12.60;99.90
18083;DHT22;9168;51.194;6.840;2023-03-24T09:12:15;12.60;99.90
18083;DHT22;9168;51.194;6.840;2023-03-24T09:14:46;12.70;99.90
18083;DHT22;9168;51.194;6.840;2023-03-24T09:17:15;12.70;99.90
18083;DHT22;9168;51.194;6.840;2023-03-24T09:19:42;12.70;99.90
18083;DHT22;9168;51.194;6.840;2023-03-24T09:22:09;12.80;99.90
18083;DHT22;9168;51.194;6.840;2023-03-24T09:24:36;12.90;99.90
18083;DHT22;9168;51.194;6.840;2023-03-24T09:27:03;12.90;99.90
18083;DHT22;9168;51.194;6.840;2023-03-24T09:29:30;13.00;99.90
18083;DHT22;9168;51.194;6.840;2023-03-24T09:31:57;13.10;99.90
18083;DHT22;9168;51.194;6.840;2023-03-24T09:34:25;13.10;99.90
18083;DHT22;9168;51.194;6.840;2023-03-24T09:36:52;13.10;99.90
18083;DHT22;9168;51.194;6.840;2023-03-24T09:39:19;13.10;99.90
18083;DHT22;9168;51.194;6.840;2023-03-24T09:41:48;13.10;99.90
18083;DHT22;9168;51.194;6.840;2023-03-24T09:44:22;13.10;99.90
18083;DHT22;9168;51.194;6.840;2023-03-24T09:46:54;13.10;99.90
18083;DHT22;9168;51.194;6.840;2023-03-24T09:49:26;13.20;99.90
18083;DHT22;9168;51.194;6.840;2023-03-24T09:51:59;13.10;99.90
18083;DHT22;9168;51.194;6.840;2023-03-24T09:54:31;13.10;99.90
18083;DHT22;9168;51.194;6.840;2023-03-24T09:57:02;13.10;99.90
18083;DHT22;9168;51.194;6.840;2023-03-24T09:59:33;13.10;99.90
18083;DHT22;9168;51.194;6.840;2023-03-24T10:02:01;13.10;99.90
18083;DHT22;9168;51.194;6.840;2023-03-24T10:04:31;13.10;99.90
18083;DHT22;9168;51.194;6.840;2023-03-24T10:07:02;13.10;99.90
18083;DHT22;9168;51.194;6.840;2023-03-24T10:09:34;13.00;99.90
18083;DHT22;9168;51.194;6.840;2023-03-24T10:12:14;13.00;99.90
18083;DHT22;9168;51.194;6.840;2023-03-24T10:15:01;13.10;99.90
18083;DHT22;9168;51.194;6.840;2023-03-24T10:17:39;13.20;99.90
18083;DHT22;9168;51.194;6.840;2023-03-24T10:20:22;13.30;99.90
18083;DHT22;9168;51.194;6.840;2023-03-24T10:22:57;13.30;99.90
18083;DHT22;9168;51.194;6.840;2023-03-24T10:25:35;13.20;99.90
18083;DHT22;9168;51.194;6.840;2023-03-24T10:28:11;13.20;99.90
18083;DHT22;9168;51.194;6.840;2023-03-24T10:30:42;13.10;99.90
18083;DHT22;9168;51.194;6.840;2023-03-24T10:33:10;13.10;99.90
18083;DHT22;9168;51.194;6.840;2023-03-24T10:35:41;13.40;99.90
18083;DHT22;9168;51.194;6.840;2023-03-24T10:38:15;13.40;99.90
18083;DHT22;9168;51.194;6.840;2023-03-24T10:40:43;13.40;99.90
18083;DHT22;9168;51.194;6.840;2023-03-24T10:43:11;13.40;99.90
18083;DHT22;9168;51.194;6.840;2023-03-24T10:45:40;13.40;99.90
18083;DHT22;9168;51.194;6.840;2023-03-24T10:48:11;13.70;99.90
18083;DHT22;9168;51.194;6.840;2023-03-24T10:50:43;14.00;99.90
18083;DHT22;9168;51.194;6.840;2023-03-24T10:53:16;14.80;99.90
18083;DHT22;9168;51.194;6.840;2023-03-24T10:55:44;15.80;99.90
18083;DHT22;9168;51.194;6.840;2023-03-24T10:58:19;16.70;99.90
18083;DHT22;9168;51.194;6.840;2023-03-24T11:00:47;17.80;99.90
18083;DHT22;9168;51.194;6.840;2023-03-24T11:03:16;18.70;99.90
18083;DHT22;9168;51.194;6.840;2023-03-24T11:05:47;19.20;99.90
18083;DHT22;9168;51.194;6.840;2023-03-24T11:08:24;19.20;99.90
18083;DHT22;9168;51.194;6.840;2023-03-24T11:10:53;18.70;99.90
18083;DHT22;9168;51.194;6.840;2023-03-24T11:13:27;18.30;99.90
18083;DHT22;9168;51.194;6.840;2023-03-24T11:16:03;17.90;99.90
18083;DHT22;9168;51.194;6.840;2023-03-24T11:18:31;17.80;99.90
18083;DHT22;9168;51.194;6.840;2023-03-24T11:21:00;17.10;99.90
18083;DHT22;9168;51.194;6.840;2023-03-24T11:23:30;16.90;99.90
18083;DHT22;9168;51.194;6.840;2023-03-24T11:26:07;17.20;99.90
18083;DHT22;9168;51.194;6.840;2023-03-24T11:28:40;17.40;99.90
18083;DHT22;9168;51.194;6.840;2023-03-24T11:31:09;17.20;99.90
18083;DHT22;9168;51.194;6.840;2023-03-24T11:33:47;17.00;99.90
18083;DHT22;9168;51.194;6.840;2023-03-24T11:36:43;16.70;99.90
18083;DHT22;9168;51.194;6.840;2023-03-24T11:39:14;16.40;99.90
18083;DHT22;9168;51.194;6.840;2023-03-24T11:41:50;16.60;99.90
18083;DHT22;9168;51.194;6.840;2023-03-24T11:44:18;17.00;99.90
18083;DHT22;9168;51.194;6.840;2023-03-24T11:46:49;16.90;99.90
18083;DHT22;9168;51.194;6.840;2023-03-24T11:49:19;17.20;99.90
18083;DHT22;9168;51.194;6.840;2023-03-24T11:51:50;17.00;99.90
18083;DHT22;9168;51.194;6.840;2023-03-24T11:54:21;16.70;99.90
18083;DHT22;9168;51.194;6.840;2023-03-24T11:56:51;17.40;99.90
18083;DHT22;9168;51.194;6.840;2023-03-24T11:59:32;17.70;99.90
18083;DHT22;9168;51.194;6.840;2023-03-24T12:02:09;17.40;99.90
18083;DHT22;9168;51.194;6.840;2023-03-24T12:04:44;16.70;99.90
18083;DHT22;9168;51.194;6.840;2023-03-24T12:07:40;16.70;99.90
18083;DHT22;9168;51.194;6.840;2023-03-24T12:10:20;16.70;99.90
18083;DHT22;9168;51.194;6.840;2023-03-24T12:12:53;16.70;99.90
18083;DHT22;9168;51.194;6.840;2023-03-24T12:15:36;16.60;99.90
18083;DHT22;9168;51.194;6.840;2023-03-24T12:18:31;16.40;99.90
18083;DHT22;9168;51.194;6.840;2023-03-24T12:21:06;15.90;99.90
18083;DHT22;9168;51.194;6.840;2023-03-24T12:23:48;15.80;99.90
18083;DHT22;9168;51.194;6.840;2023-03-24T12:26:18;15.50;99.90
18083;DHT22;9168;51.194;6.840;2023-03-24T12:35:10;15.80;99.90
18083;DHT22;9168;51.194;6.840;2023-03-24T12:37:50;16.00;99.90
18083;DHT22;9168;51.194;6.840;2023-03-24T12:40:42;16.20;99.90
18083;DHT22;9168;51.194;6.840;2023-03-24T12:43:22;16.40;99.90
18083;DHT22;9168;51.194;6.840;2023-03-24T12:45:54;17.50;99.90
18083;DHT22;9168;51.194;6.840;2023-03-24T12:48:39;17.70;99.90
18083;DHT22;9168;51.194;6.840;2023-03-24T12:51:14;17.50;99.90
18083;DHT22;9168;51.194;6.840;2023-03-24T12:53:56;17.30;99.90
18083;DHT22;9168;51.194;6.840;2023-03-24T12:56:31;17.40;99.90
18083;DHT22;9168;51.194;6.840;2023-03-24T12:59:02;17.40;99.90
18083;DHT22;9168;51.194;6.840;2023-03-24T13:01:34;17.20;99.90
18083;DHT22;9168;51.194;6.840;2023-03-24T13:04:07;16.90;99.90
18083;DHT22;9168;51.194;6.840;2023-03-24T13:06:39;16.60;99.90
18083;DHT22;9168;51.194;6.840;2023-03-24T13:09:14;16.30;99.90
18083;DHT22;9168;51.194;6.840;2023-03-24T13:11:54;16.20;99.90
18083;DHT22;9168;51.194;6.840;2023-03-24T13:14:27;16.20;99.90
18083;DHT22;9168;51.194;6.840;2023-03-24T13:17:02;16.20;99.90
18083;DHT22;9168;51.194;6.840;2023-03-24T13:19:30;16.10;99.90
18083;DHT22;9168;51.194;6.840;2023-03-24T13:21:59;15.90;99.90
18083;DHT22;9168;51.194;6.840;2023-03-24T13:24:28;15.80;99.90
18083;DHT22;9168;51.194;6.840;2023-03-24T13:27:03;15.70;99.90
18083;DHT22;9168;51.194;6.840;2023-03-24T13:29:50;15.50;99.90
18083;DHT22;9168;51.194;6.840;2023-03-24T13:32:29;15.50;99.90
18083;DHT22;9168;51.194;6.840;2023-03-24T13:35:00;15.80;99.90
18083;DHT22;9168;51.194;6.840;2023-03-24T13:37:34;16.40;99.90
18083;DHT22;9168;51.194;6.840;2023-03-24T13:40:06;16.80;99.90
18083;DHT22;9168;51.194;6.840;2023-03-24T13:42:42;17.40;99.90
18083;DHT22;9168;51.194;6.840;2023-03-24T13:45:22;18.10;99.90
18083;DHT22;9168;51.194;6.840;2023-03-24T13:47:52;18.50;99.90
18083;DHT22;9168;51.194;6.840;2023-03-24T13:50:23;18.50;99.90
18083;DHT22;9168;51.194;6.840;2023-03-24T13:52:51;18.20;99.90
18083;DHT22;9168;51.194;6.840;2023-03-24T13:55:21;17.70;99.90
18083;DHT22;9168;51.194;6.840;2023-03-24T13:57:56;17.10;99.90
18083;DHT22;9168;51.194;6.840;2023-03-24T14:00:24;16.50;99.90
18083;DHT22;9168;51.194;6.840;2023-03-24T14:02:53;16.10;99.90
18083;DHT22;9168;51.194;6.840;2023-03-24T14:05:57;15.70;99.90
18083;DHT22;9168;51.194;6.840;2023-03-24T14:08:41;15.30;99.90
18083;DHT22;9168;51.194;6.840;2023-03-24T14:11:42;15.40;99.90
18083;DHT22;9168;51.194;6.840;2023-03-24T14:14:19;16.10;99.90
18083;DHT22;9168;51.194;6.840;2023-03-24T14:17:10;16.80;99.90
18083;DHT22;9168;51.194;6.840;2023-03-24T14:19:39;17.30;99.90
18083;DHT22;9168;51.194;6.840;2023-03-24T14:22:15;17.80;99.90
18083;DHT22;9168;51.194;6.840;2023-03-24T14:24:56;18.30;99.90
18083;DHT22;9168;51.194;6.840;2023-03-24T14:27:32;18.60;99.90
18083;DHT22;9168;51.194;6.840;2023-03-24T14:30:04;19.10;99.90
18083;DHT22;9168;51.194;6.840;2023-03-24T14:32:42;19.20;99.90
18083;DHT22;9168;51.194;6.840;2023-03-24T14:35:21;18.70;99.90
18083;DHT22;9168;51.194;6.840;2023-03-24T14:37:51;18.00;99.90
18083;DHT22;9168;51.194;6.840;2023-03-24T14:40:27;17.50;99.90
18083;DHT22;9168;51.194;6.840;2023-03-24T14:43:04;17.00;99.90
18083;DHT22;9168;51.194;6.840;2023-03-24T14:45:53;16.70;99.90
18083;DHT22;9168;51.194;6.840;2023-03-24T14:48:28;16.30;99.90
18083;DHT22;9168;51.194;6.840;2023-03-24T14:50:58;16.00;99.90
18083;DHT22;9168;51.194;6.840;2023-03-24T14:53:26;15.80;99.90
18083;DHT22;9168;51.194;6.840;2023-03-24T14:55:53;15.70;99.90
18083;DHT22;9168;51.194;6.840;2023-03-24T14:58:23;15.70;99.90
18083;DHT22;9168;51.194;6.840;2023-03-24T15:00:56;15.80;99.90
18083;DHT22;9168;51.194;6.840;2023-03-24T15:03:29;15.90;99.90
18083;DHT22;9168;51.194;6.840;2023-03-24T15:06:07;16.30;99.90
18083;DHT22;9168;51.194;6.840;2023-03-24T15:08:37;16.90;99.90
18083;DHT22;9168;51.194;6.840;2023-03-24T15:11:05;17.50;99.90
18083;DHT22;9168;51.194;6.840;2023-03-24T15:13:36;18.00;99.90
18083;DHT22;9168;51.194;6.840;2023-03-24T15:16:16;18.50;99.90
18083;DHT22;9168;51.194;6.840;2023-03-24T15:18:46;19.10;99.90
18083;DHT22;9168;51.194;6.840;2023-03-24T15:21:15;19.20;99.90
18083;DHT22;9168;51.194;6.840;2023-03-24T15:23:45;19.00;99.90
18083;DHT22;9168;51.194;6.840;2023-03-24T15:26:14;18.70;99.90
18083;DHT22;9168;51.194;6.840;2023-03-24T15:28:41;18.20;99.90
18083;DHT22;9168;51.194;6.840;2023-03-24T15:31:11;17.60;99.90
18083;DHT22;9168;51.194;6.840;2023-03-24T15:33:40;17.10;99.90
18083;DHT22;9168;51.194;6.840;2023-03-24T15:36:13;16.60;99.90
18083;DHT22;9168;51.194;6.840;2023-03-24T15:38:45;16.20;99.90
18083;DHT22;9168;51.194;6.840;2023-03-24T15:41:14;15.90;99.90
18083;DHT22;9168;51.194;6.840;2023-03-24T15:43:45;15.70;99.90
18083;DHT22;9168;51.194;6.840;2023-03-24T15:46:22;15.30;99.90
18083;DHT22;9168;51.194;6.840;2023-03-24T15:48:50;15.20;99.90
18083;DHT22;9168;51.194;6.840;2023-03-24T15:51:17;14.90;99.90
18083;DHT22;9168;51.194;6.840;2023-03-24T15:53:46;14.40;99.90
18083;DHT22;9168;51.194;6.840;2023-03-24T15:56:18;13.90;99.90
18083;DHT22;9168;51.194;6.840;2023-03-24T15:58:48;13.70;99.90
18083;DHT22;9168;51.194;6.840;2023-03-24T16:01:19;13.40;99.90
18083;DHT22;9168;51.194;6.840;2023-03-24T16:03:50;13.10;99.90
18083;DHT22;9168;51.194;6.840;2023-03-24T16:06:25;12.90;99.90
18083;DHT22;9168;51.194;6.840;2023-03-24T16:08:57;12.80;99.90
18083;DHT22;9168;51.194;6.840;2023-03-24T16:11:24;12.60;99.90
18083;DHT22;9168;51.194;6.840;2023-03-24T16:13:51;12.60;99.90
18083;DHT22;9168;51.194;6.840;2023-03-24T16:16:24;12.60;99.90
18083;DHT22;9168;51.194;6.840;2023-03-24T16:18:52;12.50;99.90
18083;DHT22;9168;51.194;6.840;2023-03-24T16:21:20;12.50;99.90
18083;DHT22;9168;51.194;6.840;2023-03-24T16:23:48;12.40;99.90
18083;DHT22;9168;51.194;6.840;2023-03-24T16:26:17;12.40;99.90
18083;DHT22;9168;51.194;6.840;2023-03-24T16:28:44;12.30;99.90